createdAt,value
2023-03-20T00:01:30.734Z,94.30
2023-03-20T00:03:58.017Z,94.30
2023-03-20T00:06:26.167Z,94.50
2023-03-20T00:08:54.108Z,94.40
2023-03-20T00:11:26.778Z,94.50
2023-03-20T00:13:54.074Z,94.70
2023-03-20T00:16:21.576Z,94.50
2023-03-20T00:18:49.079Z,94.20
2023-03-20T00:21:17.542Z,94.30
2023-03-20T00:23:44.252Z,94.30
2023-03-20T00:26:13.618Z,94.30
2023-03-20T00:28:42.886Z,94.50
2023-03-20T00:31:15.813Z,94.60
2023-03-20T00:33:42.586Z,94.70
2023-03-20T00:36:09.680Z,94.50
2023-03-20T00:38:36.452Z,94.40
2023-03-20T00:41:03.706Z,94.80
2023-03-20T00:43:31.751Z,94.50
2023-03-20T00:45:58.615Z,94.20
2023-03-20T00:48:25.676Z,94.60
2023-03-20T00:50:52.517Z,94.50
2023-03-20T00:53:19.262Z,94.60
2023-03-20T00:55:46.067Z,94.50
2023-03-20T00:58:12.807Z,94.40
2023-03-20T01:00:43.848Z,94.70
2023-03-20T01:03:13.129Z,94.60
2023-03-20T01:05:39.950Z,94.70
2023-03-20T01:08:13.987Z,94.30
2023-03-20T01:10:41.348Z,94.70
2023-03-20T01:13:13.568Z,94.50
2023-03-20T01:15:41.188Z,94.50
2023-03-20T01:18:10.066Z,94.60
2023-03-20T01:20:36.975Z,94.80
2023-03-20T01:23:06.402Z,94.20
2023-03-20T01:25:33.383Z,94.50
2023-03-20T01:28:00.709Z,94.40
2023-03-20T01:30:31.484Z,94.70
2023-03-20T01:32:58.794Z,95.00
2023-03-20T01:35:27.559Z,94.80
2023-03-20T01:37:56.373Z,94.70
2023-03-20T01:40:38.055Z,94.40
2023-03-20T01:43:06.815Z,94.70
2023-03-20T01:45:35.904Z,94.60
2023-03-20T01:48:12.427Z,94.70
2023-03-20T01:50:39.157Z,94.80
2023-03-20T01:53:08.240Z,94.80
2023-03-20T01:55:35.922Z,95.00
2023-03-20T01:58:06.661Z,94.60
2023-03-20T02:00:33.575Z,94.80
2023-03-20T02:03:00.614Z,94.80
2023-03-20T02:05:27.616Z,95.00
2023-03-20T02:08:29.954Z,94.90
2023-03-20T02:10:58.429Z,94.80
2023-03-20T02:13:27.288Z,94.70
2023-03-20T02:16:02.674Z,94.70
2023-03-20T02:18:30.421Z,94.90
2023-03-20T02:21:09.695Z,94.90
2023-03-20T02:23:55.125Z,94.90
2023-03-20T02:26:24.642Z,94.70
2023-03-20T02:28:57.660Z,94.60
2023-03-20T02:31:37.007Z,95.00
2023-03-20T02:34:17.476Z,94.90
2023-03-20T02:36:53.026Z,95.00
2023-03-20T02:39:28.566Z,95.00
2023-03-20T02:42:08.203Z,95.00
2023-03-20T02:44:37.965Z,94.90
2023-03-20T02:47:15.350Z,94.80
2023-03-20T02:49:44.918Z,94.90
2023-03-20T02:52:15.490Z,95.00
2023-03-20T02:55:14.397Z,94.90
2023-03-20T02:57:50.378Z,94.70
2023-03-20T03:00:26.589Z,95.00
2023-03-20T03:02:58.512Z,94.90
2023-03-20T03:05:27.626Z,94.90
2023-03-20T03:07:56.732Z,94.90
2023-03-20T03:10:43.584Z,94.70
2023-03-20T03:13:14.028Z,94.80
2023-03-20T03:15:43.273Z,94.90
2023-03-20T03:18:13.362Z,95.00
2023-03-20T03:20:40.424Z,95.00
2023-03-20T03:23:07.358Z,94.80
2023-03-20T03:25:39.981Z,95.10
2023-03-20T03:28:23.090Z,94.90
2023-03-20T03:30:50.793Z,94.80
2023-03-20T03:33:47.002Z,95.00
2023-03-20T03:36:16.656Z,94.80
2023-03-20T03:38:54.652Z,95.00
2023-03-20T03:41:27.342Z,94.80
2023-03-20T03:44:03.140Z,95.00
2023-03-20T03:46:48.575Z,94.90
2023-03-20T03:49:17.312Z,95.00
2023-03-20T03:51:46.403Z,94.90
2023-03-20T03:54:16.656Z,94.90
2023-03-20T03:56:45.475Z,94.70
2023-03-20T03:59:27.685Z,94.80
2023-03-20T04:01:55.673Z,95.10
2023-03-20T04:04:23.082Z,95.20
2023-03-20T04:06:49.870Z,94.90
2023-03-20T04:09:16.903Z,94.90
2023-03-20T04:11:43.767Z,95.00
2023-03-20T04:14:11.632Z,94.70
2023-03-20T04:16:38.528Z,95.00
2023-03-20T04:19:05.370Z,95.00
2023-03-20T04:21:32.136Z,94.80
2023-03-20T04:23:58.860Z,95.10
2023-03-20T04:26:25.705Z,95.20
2023-03-20T04:28:52.435Z,95.30
2023-03-20T04:31:19.415Z,95.20
2023-03-20T04:33:46.863Z,95.20
2023-03-20T04:36:13.759Z,95.20
2023-03-20T04:38:41.101Z,95.20
2023-03-20T04:41:08.846Z,95.40
2023-03-20T04:43:35.600Z,95.20
2023-03-20T04:46:02.490Z,95.20
2023-03-20T04:48:29.284Z,95.20
2023-03-20T04:51:03.091Z,95.30
2023-03-20T04:53:38.089Z,95.20
2023-03-20T04:56:05.007Z,95.30
2023-03-20T04:58:31.797Z,95.50
2023-03-20T05:00:58.830Z,95.40
2023-03-20T05:03:25.917Z,95.30
2023-03-20T05:05:52.689Z,95.30
2023-03-20T05:08:19.523Z,95.20
2023-03-20T05:10:46.356Z,95.20
2023-03-20T05:13:13.109Z,95.50
2023-03-20T05:15:39.875Z,95.70
2023-03-20T05:18:07.523Z,95.40
2023-03-20T05:20:34.236Z,95.40
2023-03-20T05:23:01.056Z,95.40
2023-03-20T05:25:27.882Z,95.40
2023-03-20T05:27:54.668Z,95.50
2023-03-20T05:30:21.588Z,95.40
2023-03-20T05:32:52.315Z,95.40
2023-03-20T05:35:19.252Z,95.40
2023-03-20T05:37:46.219Z,95.30
2023-03-20T05:40:13.989Z,95.30
2023-03-20T05:42:40.830Z,95.40
2023-03-20T05:45:08.045Z,95.50
2023-03-20T05:47:34.922Z,95.50
2023-03-20T05:50:01.766Z,95.60
2023-03-20T05:52:28.681Z,95.40
2023-03-20T05:54:55.528Z,95.60
2023-03-20T05:57:22.848Z,95.60
2023-03-20T05:59:49.735Z,95.40
2023-03-20T06:02:17.415Z,95.30
2023-03-20T06:04:44.304Z,95.40
2023-03-20T06:07:11.069Z,95.30
2023-03-20T06:09:37.774Z,95.40
2023-03-20T06:12:04.572Z,95.10
2023-03-20T06:14:31.434Z,95.10
2023-03-20T06:16:58.262Z,95.40
2023-03-20T06:19:24.970Z,95.60
2023-03-20T06:21:51.831Z,95.30
2023-03-20T06:24:18.861Z,95.30
2023-03-20T06:26:45.618Z,95.30
2023-03-20T06:29:12.425Z,95.50
2023-03-20T06:31:39.197Z,95.20
2023-03-20T06:34:05.943Z,95.30
2023-03-20T06:36:32.960Z,95.50
2023-03-20T06:38:59.699Z,95.30
2023-03-20T06:41:34.372Z,95.30
2023-03-20T06:44:01.821Z,95.40
2023-03-20T06:46:28.680Z,95.40
2023-03-20T06:48:55.933Z,95.60
2023-03-20T06:51:22.835Z,95.50
2023-03-20T06:53:49.553Z,95.50
2023-03-20T06:56:16.980Z,95.70
2023-03-20T06:58:43.841Z,95.10
2023-03-20T07:01:15.152Z,95.40
2023-03-20T07:03:42.141Z,95.60
2023-03-20T07:06:09.272Z,95.50
2023-03-20T07:08:36.954Z,95.40
2023-03-20T07:11:04.357Z,95.50
2023-03-20T07:13:31.544Z,95.50
2023-03-20T07:16:04.584Z,95.30
2023-03-20T07:18:32.321Z,95.40
2023-03-20T07:21:03.189Z,95.60
2023-03-20T07:23:30.664Z,95.40
2023-03-20T07:25:58.220Z,95.40
2023-03-20T07:28:25.025Z,95.50
2023-03-20T07:30:51.925Z,95.50
2023-03-20T07:33:19.111Z,95.40
2023-03-20T07:35:45.971Z,95.40
2023-03-20T07:38:12.797Z,95.30
2023-03-20T07:40:39.585Z,95.40
2023-03-20T07:43:06.712Z,95.30
2023-03-20T07:45:33.510Z,95.40
2023-03-20T07:48:00.671Z,95.50
2023-03-20T07:50:27.505Z,95.40
2023-03-20T07:52:54.296Z,95.50
2023-03-20T07:55:21.288Z,95.60
2023-03-20T07:57:49.261Z,95.40
2023-03-20T08:00:16.580Z,95.60
2023-03-20T08:02:43.627Z,95.40
2023-03-20T08:05:10.757Z,95.40
2023-03-20T08:07:37.628Z,95.40
2023-03-20T08:10:04.872Z,95.40
2023-03-20T08:12:31.656Z,95.30
2023-03-20T08:14:58.376Z,95.30
2023-03-20T08:17:25.602Z,95.70
2023-03-20T08:19:52.326Z,95.30
2023-03-20T08:22:19.097Z,95.50
2023-03-20T08:24:45.861Z,95.20
2023-03-20T08:27:12.640Z,95.20
2023-03-20T08:29:39.453Z,95.50
2023-03-20T08:32:06.366Z,95.30
2023-03-20T08:34:33.747Z,95.40
2023-03-20T08:37:00.612Z,95.10
2023-03-20T08:39:27.323Z,95.10
2023-03-20T08:41:54.092Z,95.40
2023-03-20T08:44:20.818Z,95.40
2023-03-20T08:46:47.662Z,95.30
2023-03-20T08:49:14.601Z,95.30
2023-03-20T08:51:41.486Z,95.50
2023-03-20T08:54:08.264Z,95.30
2023-03-20T08:56:34.996Z,95.10
2023-03-20T08:59:01.794Z,95.10
2023-03-20T09:01:46.053Z,95.40
2023-03-20T09:04:15.302Z,95.30
2023-03-20T09:06:42.253Z,95.10
2023-03-20T09:09:08.956Z,95.20
2023-03-20T09:11:36.983Z,94.90
2023-03-20T09:14:03.799Z,95.00
2023-03-20T09:16:30.620Z,95.20
2023-03-20T09:18:57.457Z,95.40
2023-03-20T09:21:24.278Z,95.40
2023-03-20T09:23:51.043Z,95.20
2023-03-20T09:26:17.863Z,95.20
2023-03-20T09:28:44.614Z,95.10
2023-03-20T09:31:12.176Z,95.60
2023-03-20T09:33:38.995Z,95.30
2023-03-20T09:36:06.363Z,95.50
2023-03-20T09:38:33.110Z,95.70
2023-03-20T09:41:03.000Z,95.70
2023-03-20T09:43:37.945Z,95.20
2023-03-20T09:46:04.705Z,95.20
2023-03-20T09:48:44.832Z,95.30
2023-03-20T09:51:44.090Z,95.20
2023-03-20T09:54:18.968Z,95.10
2023-03-20T09:56:45.854Z,95.10
2023-03-20T09:59:14.522Z,95.40
2023-03-20T10:01:46.007Z,95.20
2023-03-20T10:04:12.929Z,94.90
2023-03-20T10:06:39.711Z,95.20
2023-03-20T10:09:26.748Z,95.30
2023-03-20T10:11:53.475Z,95.10
2023-03-20T10:14:24.552Z,94.90
2023-03-20T10:16:51.381Z,95.00
2023-03-20T10:19:24.258Z,94.90
2023-03-20T10:22:13.986Z,95.10
2023-03-20T10:24:49.968Z,95.20
2023-03-20T10:27:39.428Z,95.30
2023-03-20T10:30:24.607Z,95.10
2023-03-20T10:33:12.676Z,95.10
2023-03-20T10:35:45.276Z,94.90
2023-03-20T10:38:30.096Z,95.20
2023-03-20T10:40:58.200Z,94.70
2023-03-20T10:43:38.825Z,94.90
2023-03-20T10:46:13.456Z,94.80
2023-03-20T10:48:46.330Z,94.90
2023-03-20T10:51:23.205Z,94.90
2023-03-20T10:53:54.088Z,94.80
2023-03-20T10:56:36.737Z,94.90
2023-03-20T10:59:22.243Z,94.90
2023-03-20T11:01:48.959Z,95.00
2023-03-20T11:04:15.777Z,95.10
2023-03-20T11:06:45.646Z,94.70
2023-03-20T11:09:18.720Z,94.80
2023-03-20T11:11:51.421Z,94.90
2023-03-20T11:14:22.955Z,94.90
2023-03-20T11:17:00.722Z,94.90
2023-03-20T11:19:27.482Z,94.70
2023-03-20T11:21:56.306Z,95.10
2023-03-20T11:24:26.140Z,94.80
2023-03-20T11:26:53.440Z,95.10
2023-03-20T11:29:24.469Z,94.90
2023-03-20T11:31:51.651Z,94.70
2023-03-20T11:34:18.314Z,94.90
2023-03-20T11:37:08.582Z,95.10
2023-03-20T11:39:38.116Z,94.90
2023-03-20T11:42:21.663Z,94.70
2023-03-20T11:44:56.423Z,94.90
2023-03-20T11:47:25.810Z,95.00
2023-03-20T11:49:57.017Z,94.80
2023-03-20T11:52:37.742Z,94.90
2023-03-20T11:55:07.148Z,94.80
2023-03-20T11:57:35.657Z,95.00
2023-03-20T12:00:21.629Z,94.80
2023-03-20T12:02:48.461Z,95.00
2023-03-20T12:05:39.922Z,94.80
2023-03-20T12:08:15.608Z,95.00
2023-03-20T12:10:43.715Z,94.70
2023-03-20T12:13:16.949Z,95.00
2023-03-20T12:15:46.569Z,94.90
2023-03-20T12:18:18.024Z,94.90
2023-03-20T12:21:04.672Z,94.90
2023-03-20T12:23:34.882Z,95.00
2023-03-20T12:26:04.753Z,95.00
2023-03-20T12:28:43.323Z,94.80
2023-03-20T12:31:10.500Z,95.30
2023-03-20T12:33:45.936Z,95.10
2023-03-20T12:36:14.810Z,95.30
2023-03-20T12:38:43.009Z,95.20
2023-03-20T12:41:36.059Z,95.20
2023-03-20T12:44:05.545Z,95.00
2023-03-20T12:46:41.430Z,95.20
2023-03-20T12:49:26.829Z,95.40
2023-03-20T12:51:53.537Z,95.20
2023-03-20T12:54:23.324Z,95.20
2023-03-20T12:56:56.187Z,95.30
2023-03-20T12:59:44.314Z,95.00
2023-03-20T13:02:11.256Z,95.50
2023-03-20T13:04:50.129Z,95.10
2023-03-20T13:07:21.393Z,95.10
2023-03-20T13:10:06.528Z,95.00
2023-03-20T13:12:40.563Z,95.10
2023-03-20T13:15:25.794Z,95.50
2023-03-20T13:18:04.536Z,95.10
2023-03-20T13:20:32.045Z,95.70
2023-03-20T13:23:17.306Z,95.00
2023-03-20T13:25:53.661Z,95.40
2023-03-20T13:28:23.443Z,95.10
2023-03-20T13:30:53.187Z,95.10
2023-03-20T13:33:40.460Z,95.50
2023-03-20T13:36:13.722Z,95.30
2023-03-20T13:38:41.958Z,95.20
2023-03-20T13:41:10.243Z,95.30
2023-03-20T13:44:01.291Z,95.30
2023-03-20T13:46:34.762Z,95.00
2023-03-20T13:49:11.953Z,95.30
2023-03-20T13:51:42.685Z,95.20
2023-03-20T13:54:15.461Z,95.10
2023-03-20T13:56:44.965Z,95.00
2023-03-20T13:59:24.921Z,95.30
2023-03-20T14:02:03.784Z,95.00
2023-03-20T14:04:30.898Z,95.10
2023-03-20T14:06:59.404Z,95.20
2023-03-20T14:09:30.872Z,95.20
2023-03-20T14:12:00.584Z,95.20
2023-03-20T14:14:27.311Z,95.30
2023-03-20T14:17:08.929Z,95.10
2023-03-20T14:19:37.385Z,95.20
2023-03-20T14:22:05.475Z,95.20
2023-03-20T14:24:35.342Z,95.20
2023-03-20T14:27:02.771Z,95.30
2023-03-20T14:29:29.479Z,95.00
2023-03-20T14:32:03.937Z,95.30
2023-03-20T14:34:44.912Z,95.40
2023-03-20T14:37:47.212Z,95.30
2023-03-20T14:40:13.942Z,95.50
2023-03-20T14:42:50.013Z,95.30
2023-03-20T14:45:16.671Z,95.30
2023-03-20T14:47:53.418Z,95.20
2023-03-20T14:50:25.911Z,95.40
2023-03-20T14:53:01.083Z,95.30
2023-03-20T14:55:28.136Z,95.30
2023-03-20T14:57:57.554Z,95.10
2023-03-20T15:00:28.515Z,95.20
2023-03-20T15:03:18.211Z,95.20
2023-03-20T15:05:45.345Z,95.10
2023-03-20T15:08:25.655Z,95.20
2023-03-20T15:10:56.870Z,95.10
2023-03-20T15:13:24.873Z,95.20
2023-03-20T15:15:56.390Z,95.30
2023-03-20T15:18:24.109Z,95.30
2023-03-20T15:20:50.863Z,95.30
2023-03-20T15:23:17.569Z,95.10
2023-03-20T15:25:45.571Z,95.50
2023-03-20T15:28:13.826Z,95.60
2023-03-20T15:30:40.962Z,95.30
2023-03-20T15:33:14.056Z,95.40
2023-03-20T15:35:40.857Z,95.40
2023-03-20T15:38:08.058Z,95.30
2023-03-20T15:40:49.993Z,95.20
2023-03-20T15:43:19.044Z,95.30
2023-03-20T15:45:45.802Z,95.30
2023-03-20T15:48:19.842Z,95.30
2023-03-20T15:50:49.607Z,95.10
2023-03-20T15:53:20.949Z,95.30
2023-03-20T15:55:50.003Z,95.10
2023-03-20T15:58:17.023Z,95.10
2023-03-20T16:00:48.154Z,95.30
2023-03-20T16:03:18.746Z,95.60
2023-03-20T16:05:46.764Z,95.10
2023-03-20T16:08:15.660Z,95.20
2023-03-20T16:10:43.380Z,95.00
2023-03-20T16:13:12.997Z,95.20
2023-03-20T16:15:40.179Z,95.30
2023-03-20T16:18:07.798Z,95.40
2023-03-20T16:20:37.059Z,95.30
2023-03-20T16:23:05.880Z,95.40
2023-03-20T16:25:34.467Z,95.30
2023-03-20T16:28:01.407Z,95.40
2023-03-20T16:30:31.405Z,95.20
2023-03-20T16:33:04.624Z,95.20
2023-03-20T16:35:36.966Z,95.30
2023-03-20T16:38:14.342Z,95.30
2023-03-20T16:40:41.265Z,95.60
2023-03-20T16:43:17.846Z,95.40
2023-03-20T16:45:50.883Z,95.30
2023-03-20T16:48:22.374Z,95.60
2023-03-20T16:50:54.523Z,95.70
2023-03-20T16:53:21.275Z,95.50
2023-03-20T16:55:49.466Z,95.30
2023-03-20T16:58:23.168Z,95.60
2023-03-20T17:00:57.777Z,95.80
2023-03-20T17:03:29.181Z,95.60
2023-03-20T17:05:55.912Z,95.70
2023-03-20T17:08:27.105Z,95.60
2023-03-20T17:10:56.297Z,95.50
2023-03-20T17:13:23.070Z,95.80
2023-03-20T17:15:49.956Z,95.50
2023-03-20T17:18:16.678Z,95.50
2023-03-20T17:20:43.548Z,95.80
2023-03-20T17:23:19.377Z,95.70
2023-03-20T17:25:46.220Z,95.80
2023-03-20T17:28:21.062Z,95.70
2023-03-20T17:30:48.506Z,95.50
2023-03-20T17:33:16.496Z,95.70
2023-03-20T17:35:43.691Z,95.50
2023-03-20T17:38:15.503Z,95.90
2023-03-20T17:40:42.244Z,95.80
2023-03-20T17:43:10.930Z,95.90
2023-03-20T17:45:37.746Z,95.70
2023-03-20T17:48:04.484Z,95.90
2023-03-20T17:50:31.939Z,95.70
2023-03-20T17:52:58.747Z,95.70
2023-03-20T17:55:25.500Z,96.00
2023-03-20T17:57:52.401Z,95.50
2023-03-20T18:00:23.601Z,95.60
2023-03-20T18:02:50.915Z,95.80
2023-03-20T18:05:17.983Z,95.90
2023-03-20T18:07:44.791Z,95.60
2023-03-20T18:10:25.390Z,95.70
2023-03-20T18:12:52.134Z,95.70
2023-03-20T18:15:18.873Z,95.80
2023-03-20T18:17:45.828Z,95.80
2023-03-20T18:20:32.817Z,95.70
2023-03-20T18:22:59.636Z,95.70
2023-03-20T18:25:26.392Z,95.90
2023-03-20T18:27:53.595Z,95.80
2023-03-20T18:30:21.634Z,95.60
2023-03-20T18:32:49.686Z,96.00
2023-03-20T18:35:16.856Z,95.70
2023-03-20T18:37:44.238Z,96.00
2023-03-20T18:40:31.262Z,95.70
2023-03-20T18:42:58.418Z,95.90
2023-03-20T18:45:27.173Z,96.00
2023-03-20T18:47:54.551Z,95.70
2023-03-20T18:50:32.083Z,95.70
2023-03-20T18:52:59.393Z,96.20
2023-03-20T18:55:27.528Z,95.90
2023-03-20T18:57:54.763Z,95.70
2023-03-20T19:00:21.508Z,95.90
2023-03-20T19:02:48.915Z,95.90
2023-03-20T19:05:15.797Z,96.10
2023-03-20T19:07:42.738Z,96.00
2023-03-20T19:10:25.277Z,95.90
2023-03-20T19:12:52.401Z,96.00
2023-03-20T19:15:19.669Z,95.80
2023-03-20T19:17:46.801Z,95.90
2023-03-20T19:20:23.005Z,95.70
2023-03-20T19:22:49.789Z,96.00
2023-03-20T19:25:16.515Z,96.00
2023-03-20T19:27:43.637Z,95.90
2023-03-20T19:30:23.975Z,96.00
2023-03-20T19:32:50.668Z,96.10
2023-03-20T19:38:04.578Z,96.10
2023-03-20T19:40:32.987Z,95.80
2023-03-20T19:43:03.522Z,95.90
2023-03-20T19:45:31.727Z,95.90
2023-03-20T19:47:58.823Z,96.20
2023-03-20T19:50:30.475Z,96.00
2023-03-20T19:52:58.355Z,96.00
2023-03-20T19:55:26.161Z,96.00
2023-03-20T19:57:54.637Z,96.20
2023-03-20T20:00:56.441Z,96.10
2023-03-20T20:03:16.313Z,95.80
2023-03-20T20:05:43.346Z,96.00
2023-03-20T20:08:26.125Z,96.10
2023-03-20T20:10:56.983Z,96.30
2023-03-20T20:13:25.701Z,96.00
2023-03-20T20:15:53.055Z,96.20
2023-03-20T20:18:21.377Z,96.00
2023-03-20T20:23:38.499Z,96.10
2023-03-20T20:26:05.305Z,96.20
2023-03-20T20:28:32.055Z,96.20
2023-03-20T20:30:58.872Z,96.30
2023-03-20T20:33:29.001Z,95.90
2023-03-20T20:36:27.851Z,96.00
2023-03-20T20:38:51.170Z,96.00
2023-03-20T20:41:18.296Z,96.10
2023-03-20T20:46:31.954Z,96.20
2023-03-20T20:49:06.971Z,96.30
2023-03-20T20:51:39.710Z,96.40
2023-03-20T20:54:07.747Z,96.50
2023-03-20T20:56:34.873Z,96.20
2023-03-20T20:59:01.582Z,96.20
2023-03-20T21:01:28.369Z,96.10
2023-03-20T21:03:55.137Z,96.20
2023-03-20T21:06:22.019Z,96.10
2023-03-20T21:08:48.857Z,96.10
2023-03-20T21:11:16.566Z,96.30
2023-03-20T21:13:43.360Z,96.30
2023-03-20T21:16:12.056Z,96.30
2023-03-20T21:18:38.819Z,96.10
2023-03-20T21:21:10.193Z,96.00
2023-03-20T21:23:37.157Z,96.00
2023-03-20T21:26:04.607Z,96.30
2023-03-20T21:28:31.927Z,96.00
2023-03-20T21:31:24.915Z,96.20
2023-03-20T21:33:45.509Z,96.40
2023-03-20T21:36:12.360Z,96.20
2023-03-20T21:41:26.801Z,96.00
2023-03-20T21:43:54.087Z,96.30
2023-03-20T21:55:22.335Z,96.20
2023-03-20T21:58:24.013Z,96.10
2023-03-20T22:03:10.918Z,96.30
2023-03-20T22:06:45.719Z,96.40
2023-03-20T22:20:33.154Z,96.30
2023-03-20T22:25:46.318Z,96.30
2023-03-20T22:28:33.210Z,96.20
2023-03-20T22:31:26.807Z,96.30
2023-03-20T22:37:09.350Z,96.70
2023-03-20T22:42:28.683Z,96.50
2023-03-20T22:47:23.554Z,96.30
2023-03-20T22:49:50.511Z,96.50
2023-03-20T22:52:29.459Z,96.50
2023-03-20T22:55:01.788Z,96.30
2023-03-20T22:57:38.780Z,96.70
2023-03-20T23:00:10.535Z,96.50
2023-03-20T23:02:37.252Z,96.50
2023-03-20T23:05:04.097Z,96.50
2023-03-20T23:07:31.098Z,96.60
2023-03-20T23:09:58.312Z,96.40
2023-03-20T23:12:25.004Z,96.40
2023-03-20T23:14:51.794Z,96.60
2023-03-20T23:17:19.618Z,96.50
2023-03-20T23:19:52.205Z,96.30
2023-03-20T23:22:23.282Z,96.50
2023-03-20T23:24:51.090Z,96.30
2023-03-20T23:27:20.757Z,96.40
2023-03-20T23:29:47.525Z,96.40
2023-03-20T23:32:14.248Z,96.50
2023-03-20T23:34:41.163Z,96.40
2023-03-20T23:37:08.008Z,96.60
2023-03-20T23:39:34.720Z,96.60
2023-03-20T23:42:14.406Z,96.50
2023-03-20T23:44:56.488Z,96.50
2023-03-20T23:47:27.603Z,96.40
2023-03-20T23:49:56.595Z,96.70
2023-03-20T23:52:23.392Z,96.60
2023-03-20T23:54:50.178Z,96.30
2023-03-20T23:57:16.897Z,96.70
2023-03-20T23:59:43.947Z,96.50
